sensor_id;sensor_type;location;lat;lon;timestamp;temperature;humidity
15286;DHT22;7744;52.172;10.668;2023-06-26T00:01:50;18.80;99.90
15286;DHT22;7744;52.172;10.668;2023-06-26T00:04:16;18.90;99.90
15286;DHT22;7744;52.172;10.668;2023-06-26T00:06:42;18.90;99.90
15286;DHT22;7744;52.172;10.668;2023-06-26T00:09:08;18.50;1.00
15286;DHT22;7744;52.172;10.668;2023-06-26T00:11:33;18.60;1.00
15286;DHT22;7744;52.172;10.668;2023-06-26T00:14:00;18.60;1.00
15286;DHT22;7744;52.172;10.668;2023-06-26T00:16:26;18.60;1.00
15286;DHT22;7744;52.172;10.668;2023-06-26T00:18:53;18.60;1.00
15286;DHT22;7744;52.172;10.668;2023-06-26T00:21:19;18.60;1.00
15286;DHT22;7744;52.172;10.668;2023-06-26T00:23:45;18.50;1.00
15286;DHT22;7744;52.172;10.668;2023-06-26T00:26:11;18.60;1.00
15286;DHT22;7744;52.172;10.668;2023-06-26T00:28:37;18.50;1.00
15286;DHT22;7744;52.172;10.668;2023-06-26T00:31:04;18.50;99.90
15286;DHT22;7744;52.172;10.668;2023-06-26T00:33:30;18.50;99.90
15286;DHT22;7744;52.172;10.668;2023-06-26T00:35:55;18.50;99.90
15286;DHT22;7744;52.172;10.668;2023-06-26T00:38:21;18.50;99.90
15286;DHT22;7744;52.172;10.668;2023-06-26T00:40:46;18.40;99.90
15286;DHT22;7744;52.172;10.668;2023-06-26T00:43:12;18.50;1.00
15286;DHT22;7744;52.172;10.668;2023-06-26T00:45:38;18.40;1.00
15286;DHT22;7744;52.172;10.668;2023-06-26T00:48:04;18.30;1.00
15286;DHT22;7744;52.172;10.668;2023-06-26T00:50:29;18.30;1.00
15286;DHT22;7744;52.172;10.668;2023-06-26T00:52:55;18.30;1.00
15286;DHT22;7744;52.172;10.668;2023-06-26T00:55:29;18.20;1.00
15286;DHT22;7744;52.172;10.668;2023-06-26T00:57:55;18.20;99.90
15286;DHT22;7744;52.172;10.668;2023-06-26T01:00:21;18.20;99.90
15286;DHT22;7744;52.172;10.668;2023-06-26T01:02:47;18.20;65.60
15286;DHT22;7744;52.172;10.668;2023-06-26T01:05:13;18.30;1.00
15286;DHT22;7744;52.172;10.668;2023-06-26T01:07:48;18.30;1.00
15286;DHT22;7744;52.172;10.668;2023-06-26T01:10:14;18.20;1.00
15286;DHT22;7744;52.172;10.668;2023-06-26T01:12:40;18.30;1.00
15286;DHT22;7744;52.172;10.668;2023-06-26T01:15:06;18.20;1.00
15286;DHT22;7744;52.172;10.668;2023-06-26T01:17:32;18.20;1.00
15286;DHT22;7744;52.172;10.668;2023-06-26T01:20:04;18.20;1.00
15286;DHT22;7744;52.172;10.668;2023-06-26T01:27:34;18.10;1.00
15286;DHT22;7744;52.172;10.668;2023-06-26T01:30:02;18.10;1.00
15286;DHT22;7744;52.172;10.668;2023-06-26T01:32:30;18.00;1.00
15286;DHT22;7744;52.172;10.668;2023-06-26T01:34:58;18.10;1.00
15286;DHT22;7744;52.172;10.668;2023-06-26T01:37:24;18.10;1.00
15286;DHT22;7744;52.172;10.668;2023-06-26T01:39:50;18.10;1.00
15286;DHT22;7744;52.172;10.668;2023-06-26T01:42:16;18.00;1.00
15286;DHT22;7744;52.172;10.668;2023-06-26T01:44:45;18.00;1.00
15286;DHT22;7744;52.172;10.668;2023-06-26T01:47:18;18.00;1.00
15286;DHT22;7744;52.172;10.668;2023-06-26T01:50:11;18.00;1.00
15286;DHT22;7744;52.172;10.668;2023-06-26T01:52:43;18.00;1.00
15286;DHT22;7744;52.172;10.668;2023-06-26T01:58:01;18.00;1.00
15286;DHT22;7744;52.172;10.668;2023-06-26T02:00:27;18.00;1.00
15286;DHT22;7744;52.172;10.668;2023-06-26T02:02:54;17.90;1.00
15286;DHT22;7744;52.172;10.668;2023-06-26T02:05:19;17.90;1.00
15286;DHT22;7744;52.172;10.668;2023-06-26T02:07:45;18.00;1.00
15286;DHT22;7744;52.172;10.668;2023-06-26T02:10:11;18.00;1.00
15286;DHT22;7744;52.172;10.668;2023-06-26T02:12:37;17.90;1.00
15286;DHT22;7744;52.172;10.668;2023-06-26T02:15:03;17.90;1.00
15286;DHT22;7744;52.172;10.668;2023-06-26T02:17:30;17.90;1.00
15286;DHT22;7744;52.172;10.668;2023-06-26T02:19:55;17.80;1.00
15286;DHT22;7744;52.172;10.668;2023-06-26T02:22:21;17.80;12.50
15286;DHT22;7744;52.172;10.668;2023-06-26T02:24:47;17.90;1.00
15286;DHT22;7744;52.172;10.668;2023-06-26T02:27:12;17.70;52.80
15286;DHT22;7744;52.172;10.668;2023-06-26T02:29:39;17.70;99.90
15286;DHT22;7744;52.172;10.668;2023-06-26T02:32:05;17.60;99.90
15286;DHT22;7744;52.172;10.668;2023-06-26T02:34:31;17.60;99.90
15286;DHT22;7744;52.172;10.668;2023-06-26T02:36:57;17.60;99.90
15286;DHT22;7744;52.172;10.668;2023-06-26T02:39:24;17.60;99.90
15286;DHT22;7744;52.172;10.668;2023-06-26T02:41:49;17.60;99.90
15286;DHT22;7744;52.172;10.668;2023-06-26T02:44:15;17.60;38.40
15286;DHT22;7744;52.172;10.668;2023-06-26T02:46:40;17.60;1.00
15286;DHT22;7744;52.172;10.668;2023-06-26T02:49:07;17.60;33.50
15286;DHT22;7744;52.172;10.668;2023-06-26T02:51:33;17.50;1.00
15286;DHT22;7744;52.172;10.668;2023-06-26T02:53:59;17.60;16.20
15286;DHT22;7744;52.172;10.668;2023-06-26T02:56:24;17.70;1.00
15286;DHT22;7744;52.172;10.668;2023-06-26T02:58:54;17.60;1.00
15286;DHT22;7744;52.172;10.668;2023-06-26T03:01:20;17.60;1.00
15286;DHT22;7744;52.172;10.668;2023-06-26T03:03:46;17.60;1.00
15286;DHT22;7744;52.172;10.668;2023-06-26T03:06:12;17.60;1.00
15286;DHT22;7744;52.172;10.668;2023-06-26T03:08:38;17.60;1.00
15286;DHT22;7744;52.172;10.668;2023-06-26T03:11:05;17.70;1.00
15286;DHT22;7744;52.172;10.668;2023-06-26T03:13:32;17.50;1.00
15286;DHT22;7744;52.172;10.668;2023-06-26T03:15:58;17.60;1.00
15286;DHT22;7744;52.172;10.668;2023-06-26T03:18:23;17.60;1.00
15286;DHT22;7744;52.172;10.668;2023-06-26T03:20:49;17.60;1.00
15286;DHT22;7744;52.172;10.668;2023-06-26T03:23:15;17.60;1.00
15286;DHT22;7744;52.172;10.668;2023-06-26T03:25:40;17.60;1.00
15286;DHT22;7744;52.172;10.668;2023-06-26T03:28:06;17.70;1.00
15286;DHT22;7744;52.172;10.668;2023-06-26T03:30:31;17.70;99.90
15286;DHT22;7744;52.172;10.668;2023-06-26T03:32:57;17.70;99.90
15286;DHT22;7744;52.172;10.668;2023-06-26T03:35:22;17.70;99.90
15286;DHT22;7744;52.172;10.668;2023-06-26T03:37:49;17.60;1.00
15286;DHT22;7744;52.172;10.668;2023-06-26T03:40:15;17.70;1.00
15286;DHT22;7744;52.172;10.668;2023-06-26T03:42:42;17.80;1.00
15286;DHT22;7744;52.172;10.668;2023-06-26T03:45:07;17.90;99.90
15286;DHT22;7744;52.172;10.668;2023-06-26T03:47:33;18.00;99.90
15286;DHT22;7744;52.172;10.668;2023-06-26T03:49:58;18.10;99.90
15286;DHT22;7744;52.172;10.668;2023-06-26T03:52:24;18.10;99.90
15286;DHT22;7744;52.172;10.668;2023-06-26T03:54:50;18.10;99.90
15286;DHT22;7744;52.172;10.668;2023-06-26T03:57:15;18.10;99.90
15286;DHT22;7744;52.172;10.668;2023-06-26T03:59:41;18.10;99.90
15286;DHT22;7744;52.172;10.668;2023-06-26T04:02:06;18.10;99.90
15286;DHT22;7744;52.172;10.668;2023-06-26T04:04:32;18.10;99.90
15286;DHT22;7744;52.172;10.668;2023-06-26T04:06:58;18.10;99.90
15286;DHT22;7744;52.172;10.668;2023-06-26T04:09:25;18.10;99.90
15286;DHT22;7744;52.172;10.668;2023-06-26T04:11:50;18.10;99.90
15286;DHT22;7744;52.172;10.668;2023-06-26T04:14:16;18.10;99.90
15286;DHT22;7744;52.172;10.668;2023-06-26T04:16:43;18.10;99.90
15286;DHT22;7744;52.172;10.668;2023-06-26T04:19:09;18.10;99.90
15286;DHT22;7744;52.172;10.668;2023-06-26T04:21:35;18.20;99.90
15286;DHT22;7744;52.172;10.668;2023-06-26T04:24:01;18.30;99.90
15286;DHT22;7744;52.172;10.668;2023-06-26T04:26:27;18.40;99.90
15286;DHT22;7744;52.172;10.668;2023-06-26T04:28:54;18.70;99.90
15286;DHT22;7744;52.172;10.668;2023-06-26T04:31:20;18.50;21.60
15286;DHT22;7744;52.172;10.668;2023-06-26T04:33:46;18.60;1.00
15286;DHT22;7744;52.172;10.668;2023-06-26T04:36:19;18.60;1.00
15286;DHT22;7744;52.172;10.668;2023-06-26T04:38:44;18.70;1.00
15286;DHT22;7744;52.172;10.668;2023-06-26T04:41:10;18.70;1.00
15286;DHT22;7744;52.172;10.668;2023-06-26T04:43:36;18.70;1.00
15286;DHT22;7744;52.172;10.668;2023-06-26T04:46:04;18.80;1.00
15286;DHT22;7744;52.172;10.668;2023-06-26T04:48:30;18.90;1.00
15286;DHT22;7744;52.172;10.668;2023-06-26T04:50:56;19.00;1.00
15286;DHT22;7744;52.172;10.668;2023-06-26T04:53:23;19.00;1.00
15286;DHT22;7744;52.172;10.668;2023-06-26T04:55:52;19.10;1.00
15286;DHT22;7744;52.172;10.668;2023-06-26T04:58:19;19.20;1.00
15286;DHT22;7744;52.172;10.668;2023-06-26T05:00:45;20.00;1.00
15286;DHT22;7744;52.172;10.668;2023-06-26T05:03:14;21.50;99.90
15286;DHT22;7744;52.172;10.668;2023-06-26T05:05:42;22.60;15.00
15286;DHT22;7744;52.172;10.668;2023-06-26T05:10:40;24.80;1.00
15286;DHT22;7744;52.172;10.668;2023-06-26T05:13:05;25.40;1.00
15286;DHT22;7744;52.172;10.668;2023-06-26T05:15:31;26.30;1.00
15286;DHT22;7744;52.172;10.668;2023-06-26T05:17:57;27.00;1.00
15286;DHT22;7744;52.172;10.668;2023-06-26T05:20:22;27.50;1.00
15286;DHT22;7744;52.172;10.668;2023-06-26T05:22:48;28.10;1.00
15286;DHT22;7744;52.172;10.668;2023-06-26T05:25:14;28.40;1.00
15286;DHT22;7744;52.172;10.668;2023-06-26T05:27:40;28.90;1.00
15286;DHT22;7744;52.172;10.668;2023-06-26T05:30:07;29.30;99.90
15286;DHT22;7744;52.172;10.668;2023-06-26T05:32:34;29.70;99.90
15286;DHT22;7744;52.172;10.668;2023-06-26T05:37:31;30.30;99.90
15286;DHT22;7744;52.172;10.668;2023-06-26T05:39:57;30.70;99.90
15286;DHT22;7744;52.172;10.668;2023-06-26T05:42:22;31.30;99.90
15286;DHT22;7744;52.172;10.668;2023-06-26T05:44:48;31.20;99.90
15286;DHT22;7744;52.172;10.668;2023-06-26T05:47:14;31.70;99.90
15286;DHT22;7744;52.172;10.668;2023-06-26T05:49:39;32.50;99.90
15286;DHT22;7744;52.172;10.668;2023-06-26T05:52:05;32.20;99.90
15286;DHT22;7744;52.172;10.668;2023-06-26T05:54:31;32.70;99.90
15286;DHT22;7744;52.172;10.668;2023-06-26T05:56:57;33.30;99.90
15286;DHT22;7744;52.172;10.668;2023-06-26T05:59:27;33.60;99.90
15286;DHT22;7744;52.172;10.668;2023-06-26T06:01:53;34.00;99.90
15286;DHT22;7744;52.172;10.668;2023-06-26T06:04:18;34.10;99.90
15286;DHT22;7744;52.172;10.668;2023-06-26T06:06:44;35.00;99.90
15286;DHT22;7744;52.172;10.668;2023-06-26T06:09:09;35.30;99.90
15286;DHT22;7744;52.172;10.668;2023-06-26T06:11:35;35.60;99.90
15286;DHT22;7744;52.172;10.668;2023-06-26T06:14:01;35.80;99.90
15286;DHT22;7744;52.172;10.668;2023-06-26T06:16:26;35.60;99.90
15286;DHT22;7744;52.172;10.668;2023-06-26T06:18:54;35.60;99.90
15286;DHT22;7744;52.172;10.668;2023-06-26T06:21:20;35.50;99.90
15286;DHT22;7744;52.172;10.668;2023-06-26T06:23:46;35.40;99.90
15286;DHT22;7744;52.172;10.668;2023-06-26T06:26:12;35.70;99.90
15286;DHT22;7744;52.172;10.668;2023-06-26T06:28:38;35.30;99.90
15286;DHT22;7744;52.172;10.668;2023-06-26T06:31:04;35.00;99.90
15286;DHT22;7744;52.172;10.668;2023-06-26T06:33:30;35.80;99.90
15286;DHT22;7744;52.172;10.668;2023-06-26T06:35:55;36.00;99.90
15286;DHT22;7744;52.172;10.668;2023-06-26T06:38:21;36.00;99.90
15286;DHT22;7744;52.172;10.668;2023-06-26T06:40:46;36.30;99.90
15286;DHT22;7744;52.172;10.668;2023-06-26T06:43:12;35.60;99.90
15286;DHT22;7744;52.172;10.668;2023-06-26T06:45:38;36.60;99.90
15286;DHT22;7744;52.172;10.668;2023-06-26T06:48:04;37.40;99.90
15286;DHT22;7744;52.172;10.668;2023-06-26T06:50:30;37.70;99.90
15286;DHT22;7744;52.172;10.668;2023-06-26T06:52:56;36.00;99.90
15286;DHT22;7744;52.172;10.668;2023-06-26T06:55:22;35.20;99.90
15286;DHT22;7744;52.172;10.668;2023-06-26T06:57:48;34.20;99.90
15286;DHT22;7744;52.172;10.668;2023-06-26T07:00:14;32.30;99.90
15286;DHT22;7744;52.172;10.668;2023-06-26T07:02:43;32.20;99.90
15286;DHT22;7744;52.172;10.668;2023-06-26T07:05:10;31.90;99.90
15286;DHT22;7744;52.172;10.668;2023-06-26T07:07:37;31.20;99.90
15286;DHT22;7744;52.172;10.668;2023-06-26T07:10:13;31.70;99.90
15286;DHT22;7744;52.172;10.668;2023-06-26T07:12:39;33.10;99.90
15286;DHT22;7744;52.172;10.668;2023-06-26T07:15:06;32.90;99.90
15286;DHT22;7744;52.172;10.668;2023-06-26T07:17:32;33.30;99.90
15286;DHT22;7744;52.172;10.668;2023-06-26T07:19:59;33.40;99.90
15286;DHT22;7744;52.172;10.668;2023-06-26T07:22:25;33.90;99.90
15286;DHT22;7744;52.172;10.668;2023-06-26T07:24:50;32.60;99.90
15286;DHT22;7744;52.172;10.668;2023-06-26T07:27:16;31.90;99.90
15286;DHT22;7744;52.172;10.668;2023-06-26T07:29:43;31.10;99.90
15286;DHT22;7744;52.172;10.668;2023-06-26T07:32:09;30.70;99.90
15286;DHT22;7744;52.172;10.668;2023-06-26T07:34:35;30.40;99.90
15286;DHT22;7744;52.172;10.668;2023-06-26T07:37:01;30.60;99.90
15286;DHT22;7744;52.172;10.668;2023-06-26T07:39:26;30.40;99.90
15286;DHT22;7744;52.172;10.668;2023-06-26T07:41:52;29.50;99.90
15286;DHT22;7744;52.172;10.668;2023-06-26T07:44:18;29.70;99.90
15286;DHT22;7744;52.172;10.668;2023-06-26T07:46:44;29.80;99.90
15286;DHT22;7744;52.172;10.668;2023-06-26T07:49:10;30.10;99.90
15286;DHT22;7744;52.172;10.668;2023-06-26T07:51:36;30.00;99.90
15286;DHT22;7744;52.172;10.668;2023-06-26T07:54:01;29.60;99.90
15286;DHT22;7744;52.172;10.668;2023-06-26T07:56:27;29.40;99.90
15286;DHT22;7744;52.172;10.668;2023-06-26T07:58:53;29.80;99.90
15286;DHT22;7744;52.172;10.668;2023-06-26T08:01:18;29.80;99.90
15286;DHT22;7744;52.172;10.668;2023-06-26T08:03:44;29.90;99.90
15286;DHT22;7744;52.172;10.668;2023-06-26T08:06:10;30.10;99.90
15286;DHT22;7744;52.172;10.668;2023-06-26T08:08:37;30.00;99.90
15286;DHT22;7744;52.172;10.668;2023-06-26T08:11:02;30.20;99.90
15286;DHT22;7744;52.172;10.668;2023-06-26T08:13:28;30.30;99.90
15286;DHT22;7744;52.172;10.668;2023-06-26T08:15:53;30.50;99.90
15286;DHT22;7744;52.172;10.668;2023-06-26T08:18:20;30.50;99.90
15286;DHT22;7744;52.172;10.668;2023-06-26T08:20:46;30.70;99.90
15286;DHT22;7744;52.172;10.668;2023-06-26T08:23:11;30.70;99.90
15286;DHT22;7744;52.172;10.668;2023-06-26T08:25:37;30.70;99.90
15286;DHT22;7744;52.172;10.668;2023-06-26T08:28:02;30.60;99.90
15286;DHT22;7744;52.172;10.668;2023-06-26T08:30:28;30.50;99.90
15286;DHT22;7744;52.172;10.668;2023-06-26T08:32:57;30.20;99.90
15286;DHT22;7744;52.172;10.668;2023-06-26T08:35:23;29.80;99.90
15286;DHT22;7744;52.172;10.668;2023-06-26T08:37:49;29.60;99.90
15286;DHT22;7744;52.172;10.668;2023-06-26T08:40:18;29.30;99.90
15286;DHT22;7744;52.172;10.668;2023-06-26T08:42:46;29.20;99.90
15286;DHT22;7744;52.172;10.668;2023-06-26T08:45:12;29.20;99.90
15286;DHT22;7744;52.172;10.668;2023-06-26T08:47:38;29.20;99.90
15286;DHT22;7744;52.172;10.668;2023-06-26T08:50:10;28.90;99.90
15286;DHT22;7744;52.172;10.668;2023-06-26T08:52:43;28.80;99.90
15286;DHT22;7744;52.172;10.668;2023-06-26T08:55:12;28.80;99.90
15286;DHT22;7744;52.172;10.668;2023-06-26T08:57:40;28.90;99.90
15286;DHT22;7744;52.172;10.668;2023-06-26T09:00:07;28.90;99.90
15286;DHT22;7744;52.172;10.668;2023-06-26T09:02:35;28.70;99.90
15286;DHT22;7744;52.172;10.668;2023-06-26T09:05:02;28.50;99.90
15286;DHT22;7744;52.172;10.668;2023-06-26T09:07:28;28.40;99.90
15286;DHT22;7744;52.172;10.668;2023-06-26T09:09:54;28.20;99.90
15286;DHT22;7744;52.172;10.668;2023-06-26T09:12:20;28.20;99.90
15286;DHT22;7744;52.172;10.668;2023-06-26T09:14:47;28.30;99.90
15286;DHT22;7744;52.172;10.668;2023-06-26T09:17:15;28.20;99.90
15286;DHT22;7744;52.172;10.668;2023-06-26T09:19:41;28.20;99.90
15286;DHT22;7744;52.172;10.668;2023-06-26T09:22:14;28.10;99.90
15286;DHT22;7744;52.172;10.668;2023-06-26T09:24:41;28.20;99.90
15286;DHT22;7744;52.172;10.668;2023-06-26T09:27:07;28.40;99.90
15286;DHT22;7744;52.172;10.668;2023-06-26T09:29:33;28.50;99.90
15286;DHT22;7744;52.172;10.668;2023-06-26T09:31:59;28.70;99.90
15286;DHT22;7744;52.172;10.668;2023-06-26T09:34:32;28.70;99.90
15286;DHT22;7744;52.172;10.668;2023-06-26T09:36:59;28.40;99.90
15286;DHT22;7744;52.172;10.668;2023-06-26T09:39:30;28.60;99.90
15286;DHT22;7744;52.172;10.668;2023-06-26T09:41:56;28.70;99.90
15286;DHT22;7744;52.172;10.668;2023-06-26T09:44:23;28.60;99.90
15286;DHT22;7744;52.172;10.668;2023-06-26T09:46:48;28.70;99.90
15286;DHT22;7744;52.172;10.668;2023-06-26T09:49:14;28.60;99.90
15286;DHT22;7744;52.172;10.668;2023-06-26T09:51:42;28.50;99.90
15286;DHT22;7744;52.172;10.668;2023-06-26T09:54:08;28.50;99.90
15286;DHT22;7744;52.172;10.668;2023-06-26T09:56:34;28.70;99.90
15286;DHT22;7744;52.172;10.668;2023-06-26T09:59:02;28.90;99.90
15286;DHT22;7744;52.172;10.668;2023-06-26T10:01:29;28.90;99.90
15286;DHT22;7744;52.172;10.668;2023-06-26T10:03:55;29.20;99.90
15286;DHT22;7744;52.172;10.668;2023-06-26T10:08:56;29.40;99.90
15286;DHT22;7744;52.172;10.668;2023-06-26T10:11:25;29.50;99.90
15286;DHT22;7744;52.172;10.668;2023-06-26T10:13:52;29.50;99.90
15286;DHT22;7744;52.172;10.668;2023-06-26T10:16:31;29.40;99.90
15286;DHT22;7744;52.172;10.668;2023-06-26T10:19:04;29.30;99.90
15286;DHT22;7744;52.172;10.668;2023-06-26T10:21:34;29.20;99.90
15286;DHT22;7744;52.172;10.668;2023-06-26T10:24:00;29.20;99.90
15286;DHT22;7744;52.172;10.668;2023-06-26T10:26:28;29.10;99.90
15286;DHT22;7744;52.172;10.668;2023-06-26T10:28:56;28.90;99.90
15286;DHT22;7744;52.172;10.668;2023-06-26T10:31:25;28.90;99.90
15286;DHT22;7744;52.172;10.668;2023-06-26T10:33:52;28.70;99.90
15286;DHT22;7744;52.172;10.668;2023-06-26T10:36:19;28.80;99.90
15286;DHT22;7744;52.172;10.668;2023-06-26T10:38:57;28.80;99.90
15286;DHT22;7744;52.172;10.668;2023-06-26T10:41:24;29.10;99.90
15286;DHT22;7744;52.172;10.668;2023-06-26T10:43:52;29.10;99.90
15286;DHT22;7744;52.172;10.668;2023-06-26T10:46:35;29.30;99.90
15286;DHT22;7744;52.172;10.668;2023-06-26T10:49:13;29.40;99.90
15286;DHT22;7744;52.172;10.668;2023-06-26T10:51:46;29.60;99.90
15286;DHT22;7744;52.172;10.668;2023-06-26T10:54:15;29.60;99.90
15286;DHT22;7744;52.172;10.668;2023-06-26T10:56:51;29.30;99.90
15286;DHT22;7744;52.172;10.668;2023-06-26T10:59:24;29.20;99.90
15286;DHT22;7744;52.172;10.668;2023-06-26T11:02:00;28.90;99.90
15286;DHT22;7744;52.172;10.668;2023-06-26T11:04:47;28.80;99.90
15286;DHT22;7744;52.172;10.668;2023-06-26T11:07:22;28.60;99.90
15286;DHT22;7744;52.172;10.668;2023-06-26T11:10:01;28.50;99.90
15286;DHT22;7744;52.172;10.668;2023-06-26T11:12:44;28.40;99.90
15286;DHT22;7744;52.172;10.668;2023-06-26T11:15:17;28.20;99.90
15286;DHT22;7744;52.172;10.668;2023-06-26T11:17:44;27.90;99.90
15286;DHT22;7744;52.172;10.668;2023-06-26T11:20:14;27.80;99.90
15286;DHT22;7744;52.172;10.668;2023-06-26T11:22:42;27.80;99.90
15286;DHT22;7744;52.172;10.668;2023-06-26T11:25:09;27.90;99.90
15286;DHT22;7744;52.172;10.668;2023-06-26T11:30:08;27.60;99.90
15286;DHT22;7744;52.172;10.668;2023-06-26T11:32:36;27.10;99.90
15286;DHT22;7744;52.172;10.668;2023-06-26T11:35:01;27.00;99.90
15286;DHT22;7744;52.172;10.668;2023-06-26T11:37:27;27.00;99.90
15286;DHT22;7744;52.172;10.668;2023-06-26T11:39:53;27.30;99.90
15286;DHT22;7744;52.172;10.668;2023-06-26T11:42:22;27.50;99.90
15286;DHT22;7744;52.172;10.668;2023-06-26T11:44:49;27.50;99.90
15286;DHT22;7744;52.172;10.668;2023-06-26T11:47:16;27.40;99.90
15286;DHT22;7744;52.172;10.668;2023-06-26T11:49:46;27.20;99.90
15286;DHT22;7744;52.172;10.668;2023-06-26T11:52:13;26.70;99.90
15286;DHT22;7744;52.172;10.668;2023-06-26T11:54:39;26.60;99.90
15286;DHT22;7744;52.172;10.668;2023-06-26T11:57:05;26.40;99.90
15286;DHT22;7744;52.172;10.668;2023-06-26T11:59:38;26.00;99.90
15286;DHT22;7744;52.172;10.668;2023-06-26T12:02:07;25.80;99.90
15286;DHT22;7744;52.172;10.668;2023-06-26T12:04:36;25.80;99.90
15286;DHT22;7744;52.172;10.668;2023-06-26T12:07:03;25.40;99.90
15286;DHT22;7744;52.172;10.668;2023-06-26T12:09:30;25.30;99.90
15286;DHT22;7744;52.172;10.668;2023-06-26T12:11:58;25.40;99.90
15286;DHT22;7744;52.172;10.668;2023-06-26T12:14:25;25.80;99.90
15286;DHT22;7744;52.172;10.668;2023-06-26T12:16:52;26.10;99.90
15286;DHT22;7744;52.172;10.668;2023-06-26T12:19:24;26.40;99.90
15286;DHT22;7744;52.172;10.668;2023-06-26T12:21:50;26.60;99.90
15286;DHT22;7744;52.172;10.668;2023-06-26T12:24:23;26.70;99.90
15286;DHT22;7744;52.172;10.668;2023-06-26T12:26:54;26.70;99.90
15286;DHT22;7744;52.172;10.668;2023-06-26T12:29:29;26.50;99.90
15286;DHT22;7744;52.172;10.668;2023-06-26T12:31:56;26.00;99.90
15286;DHT22;7744;52.172;10.668;2023-06-26T12:34:33;25.70;99.90
15286;DHT22;7744;52.172;10.668;2023-06-26T12:37:01;24.90;99.90
15286;DHT22;7744;52.172;10.668;2023-06-26T12:39:27;24.50;99.90
15286;DHT22;7744;52.172;10.668;2023-06-26T12:41:55;24.20;99.90
15286;DHT22;7744;52.172;10.668;2023-06-26T12:46:49;23.90;1.00
15286;DHT22;7744;52.172;10.668;2023-06-26T12:49:15;23.80;1.00
15286;DHT22;7744;52.172;10.668;2023-06-26T12:51:41;23.60;1.00
15286;DHT22;7744;52.172;10.668;2023-06-26T12:54:08;23.50;1.00
15286;DHT22;7744;52.172;10.668;2023-06-26T12:56:33;23.50;99.90
15286;DHT22;7744;52.172;10.668;2023-06-26T12:58:59;23.70;99.90
15286;DHT22;7744;52.172;10.668;2023-06-26T13:01:26;23.90;99.90
15286;DHT22;7744;52.172;10.668;2023-06-26T13:03:53;23.90;3.60
15286;DHT22;7744;52.172;10.668;2023-06-26T13:06:19;24.00;1.00
15286;DHT22;7744;52.172;10.668;2023-06-26T13:08:45;24.20;1.00
15286;DHT22;7744;52.172;10.668;2023-06-26T13:11:11;24.50;8.60
15286;DHT22;7744;52.172;10.668;2023-06-26T13:13:36;24.60;1.00
15286;DHT22;7744;52.172;10.668;2023-06-26T13:16:02;24.80;1.00
15286;DHT22;7744;52.172;10.668;2023-06-26T13:18:28;25.20;1.00
15286;DHT22;7744;52.172;10.668;2023-06-26T13:20:53;25.50;1.00
15286;DHT22;7744;52.172;10.668;2023-06-26T13:23:19;25.50;1.00
15286;DHT22;7744;52.172;10.668;2023-06-26T13:25:45;25.30;1.00
15286;DHT22;7744;52.172;10.668;2023-06-26T13:28:11;25.10;1.00
15286;DHT22;7744;52.172;10.668;2023-06-26T13:30:37;25.10;1.00
15286;DHT22;7744;52.172;10.668;2023-06-26T13:33:02;25.50;1.00
15286;DHT22;7744;52.172;10.668;2023-06-26T13:35:28;26.00;1.00
15286;DHT22;7744;52.172;10.668;2023-06-26T13:37:54;25.80;1.00
15286;DHT22;7744;52.172;10.668;2023-06-26T13:40:19;25.60;1.00
15286;DHT22;7744;52.172;10.668;2023-06-26T13:42:45;25.40;1.00
15286;DHT22;7744;52.172;10.668;2023-06-26T13:45:11;25.70;1.00
15286;DHT22;7744;52.172;10.668;2023-06-26T13:47:37;25.90;1.00
15286;DHT22;7744;52.172;10.668;2023-06-26T13:50:07;25.80;1.00
15286;DHT22;7744;52.172;10.668;2023-06-26T13:52:33;25.70;1.00
15286;DHT22;7744;52.172;10.668;2023-06-26T13:54:58;25.90;1.00
15286;DHT22;7744;52.172;10.668;2023-06-26T13:57:24;25.70;1.00
15286;DHT22;7744;52.172;10.668;2023-06-26T13:59:50;25.80;99.90
15286;DHT22;7744;52.172;10.668;2023-06-26T14:02:15;25.60;99.90
15286;DHT22;7744;52.172;10.668;2023-06-26T14:04:41;25.30;99.90
15286;DHT22;7744;52.172;10.668;2023-06-26T14:07:10;25.40;99.90
15286;DHT22;7744;52.172;10.668;2023-06-26T14:09:35;25.50;99.90
15286;DHT22;7744;52.172;10.668;2023-06-26T14:12:01;25.60;99.90
15286;DHT22;7744;52.172;10.668;2023-06-26T14:14:27;25.50;99.90
15286;DHT22;7744;52.172;10.668;2023-06-26T14:16:53;25.50;99.90
15286;DHT22;7744;52.172;10.668;2023-06-26T14:19:18;25.50;99.90
15286;DHT22;7744;52.172;10.668;2023-06-26T14:21:44;25.60;99.90
15286;DHT22;7744;52.172;10.668;2023-06-26T14:24:09;25.90;99.90
15286;DHT22;7744;52.172;10.668;2023-06-26T14:26:35;26.10;99.90
15286;DHT22;7744;52.172;10.668;2023-06-26T14:29:02;26.10;99.90
15286;DHT22;7744;52.172;10.668;2023-06-26T14:31:28;25.80;99.90
15286;DHT22;7744;52.172;10.668;2023-06-26T14:33:53;25.70;99.90
15286;DHT22;7744;52.172;10.668;2023-06-26T14:36:19;25.90;99.90
15286;DHT22;7744;52.172;10.668;2023-06-26T14:38:45;26.00;99.90
15286;DHT22;7744;52.172;10.668;2023-06-26T14:41:11;26.10;99.90
15286;DHT22;7744;52.172;10.668;2023-06-26T14:43:38;26.20;99.90
15286;DHT22;7744;52.172;10.668;2023-06-26T14:46:03;26.00;99.90
15286;DHT22;7744;52.172;10.668;2023-06-26T14:48:29;25.70;99.90
15286;DHT22;7744;52.172;10.668;2023-06-26T14:50:54;25.50;99.90
15286;DHT22;7744;52.172;10.668;2023-06-26T14:53:20;25.40;99.90
15286;DHT22;7744;52.172;10.668;2023-06-26T14:55:46;25.70;99.90
15286;DHT22;7744;52.172;10.668;2023-06-26T14:58:11;25.90;99.90
15286;DHT22;7744;52.172;10.668;2023-06-26T15:00:37;25.90;99.90
15286;DHT22;7744;52.172;10.668;2023-06-26T15:03:04;25.70;99.90
15286;DHT22;7744;52.172;10.668;2023-06-26T15:05:29;25.50;99.90
15286;DHT22;7744;52.172;10.668;2023-06-26T15:07:55;25.40;99.90
15286;DHT22;7744;52.172;10.668;2023-06-26T15:10:21;25.10;99.90
15286;DHT22;7744;52.172;10.668;2023-06-26T15:12:47;24.90;99.90
15286;DHT22;7744;52.172;10.668;2023-06-26T15:15:13;24.70;99.90
15286;DHT22;7744;52.172;10.668;2023-06-26T15:17:39;24.60;99.90
15286;DHT22;7744;52.172;10.668;2023-06-26T15:20:05;24.70;99.90
15286;DHT22;7744;52.172;10.668;2023-06-26T15:22:31;24.70;99.90
15286;DHT22;7744;52.172;10.668;2023-06-26T15:24:56;24.80;99.90
15286;DHT22;7744;52.172;10.668;2023-06-26T15:27:22;24.90;99.90
15286;DHT22;7744;52.172;10.668;2023-06-26T15:29:48;24.80;99.90
15286;DHT22;7744;52.172;10.668;2023-06-26T15:32:13;24.80;99.90
15286;DHT22;7744;52.172;10.668;2023-06-26T15:34:41;24.90;99.90
15286;DHT22;7744;52.172;10.668;2023-06-26T15:37:06;24.90;99.90
15286;DHT22;7744;52.172;10.668;2023-06-26T15:39:32;25.10;99.90
15286;DHT22;7744;52.172;10.668;2023-06-26T15:41:58;25.10;99.90
15286;DHT22;7744;52.172;10.668;2023-06-26T15:44:24;25.30;99.90
15286;DHT22;7744;52.172;10.668;2023-06-26T15:46:50;25.30;99.90
15286;DHT22;7744;52.172;10.668;2023-06-26T15:49:15;25.30;99.90
15286;DHT22;7744;52.172;10.668;2023-06-26T15:51:41;25.30;99.90
15286;DHT22;7744;52.172;10.668;2023-06-26T15:54:07;25.20;99.90